Flight Track Log - Related Links

Times and Time Zones

All times are in EDT time to prevent confusion due to time zone crossing. See the CHQ5022 flight status page for this flight to view local times or setup timezone preferences in your user account.

Time Position Orientation Groundspeed Altitude Reporting Facility
EDT Latitude Longitude Course Direction KTS MPH feet Rate Location/Type
Mon 12:26:18 PM 41.9333 -87.9000 180° South 168 193 2,000  Level Chicago TRACON
Mon 12:27:18 PM 41.8833 -87.8833 166° South 196 226 4,100 1,864 Climbing Chicago TRACON
Mon 12:28:00 PM 41.6507 -87.7071 166° South  Level Estimated
Mon 12:28:30 PM 41.8231 -87.8450 155° Southeast 233 268 6,100  Level Chicago Center
Mon 12:29:00 PM 41.5403 -87.6410 167° South  Level Estimated
Mon 12:29:33 PM 41.7425 -87.8147 164° South 250 288 9,100  Level Chicago Center
Mon 12:30:00 PM 41.4299 -87.5752 180° South  Level Estimated
Mon 12:30:35 PM 41.6683 -87.7939 168° South 267 307 10,800  Level Chicago Center
Mon 12:31:00 PM 41.3194 -87.5095 180° South  Level Estimated
Mon 12:31:37 PM 41.5831 -87.7711 169° South 304 350 12,200  Level Chicago Center
Mon 12:32:39 PM 41.4889 -87.7442 168° South 338 389 13,300 1,016 Climbing Chicago Center
Mon 12:33:41 PM 41.3864 -87.7239 172° South 361 415 14,300 968 Climbing Chicago Center
Mon 12:34:43 PM 41.2781 -87.7269 181° South 382 440 15,300 968 Climbing Chicago Center
Mon 12:35:45 PM 41.1669 -87.7250 179° South 392 451 16,300 1,065 Climbing Chicago Center
Mon 12:36:47 PM 41.0328 -87.7039 173° South 400 460 17,500 1,065 Climbing Chicago Center
Mon 12:37:49 PM 40.9183 -87.6864 173° South 410 472 18,500 968 Climbing Chicago Center
Mon 12:38:51 PM 40.8047 -87.6706 174° South 412 474 19,500 968 Climbing Chicago Center
Mon 12:39:53 PM 40.6883 -87.6558 175° South 417 480 20,500 968 Climbing Chicago Center
Mon 12:40:55 PM 40.5711 -87.6397 174° South 423 487 21,500 1,065 Climbing Chicago Center
Mon 12:41:57 PM 40.4292 -87.6211 174° South 427 491 22,700 720 Climbing Chicago Center
Mon 12:43:00 PM 40.3139 -87.5697 161° South 437 503 23,000 144 Climbing Chicago Center
Mon 12:44:02 PM 40.1919 -87.5222 163° South 455 524 23,000  Level Chicago Center
Mon 12:44:36 PM 40.1119 -87.4922 164° South 461 531 23,000  Level Indianapolis Center
Mon 12:45:38 PM 39.9892 -87.4439 163° South 464 534 23,000  Level Indianapolis Center
Mon 12:46:39 PM 39.8656 -87.3967 164° South 464 534 23,000  Level Indianapolis Center
Mon 12:47:41 PM 39.7444 -87.3483 163° South 460 529 23,000  Level Indianapolis Center
Mon 12:48:42 PM 39.6208 -87.3008 164° South 464 534 23,000  Level Indianapolis Center
Mon 12:49:44 PM 39.4992 -87.2536 163° South 462 532 23,000  Level Indianapolis Center
Mon 12:50:46 PM 39.3725 -87.1453 147° Southeast 469 540 23,000 -488 Level Indianapolis Center
Mon 12:51:47 PM 39.2822 -87.0256 134° Southeast 469 540 22,000 -1,512 Descending Indianapolis Center
Mon 12:52:49 PM 39.1933 -86.9106 135° Southeast 459 528 19,900 -2,076 Descending Indianapolis Center
Mon 12:54:00 PM 39.1060 -86.8082 140° Southeast  Level Estimated
Mon 12:54:52 PM 39.0144 -86.6836 140° Southeast 426 490 15,600  Level Indianapolis Center
Mon 12:55:54 PM 38.9322 -86.5781 135° Southeast 418 481 13,800 -1,610 Descending Indianapolis Center
Mon 12:56:55 PM 38.8536 -86.4792 136° Southeast 403 464 12,300 -1,268 Descending Indianapolis Center
Mon 12:57:57 PM 38.7761 -86.3814 135° Southeast 393 452 11,200 -1,065 Descending Indianapolis Center
Mon 12:58:59 PM 38.7147 -86.2922 131° Southeast 349 402 10,100 -1,317 Descending Indianapolis Center
Mon 01:00:00 PM 38.6594 -86.2119 131° Southeast 316 364 8,500 -1,415 Descending Indianapolis Center
Mon 01:01:02 PM 38.6064 -86.1342 131° Southeast 303 349 7,200 -774 Descending Indianapolis Center
Mon 01:02:04 PM 38.5561 -86.0592 131° Southeast 285 328 6,900 -878 Descending Indianapolis Center
Mon 01:03:05 PM 38.5125 -85.9792 125° Southeast 276 318 5,400 -1,610 Descending Indianapolis Center
Mon 01:04:07 PM 38.4636 -85.8844 123° Southeast 268 308 3,600 -1,161 Descending Indianapolis Center
Mon 01:05:09 PM 38.4122 -85.8233 137° Southeast 259 298 3,000 -581 Descending Indianapolis Center

Login

Don't have an account? Register now (free) for customized features, flight alerts, and more!